sensor_id;sensor_type;location;lat;lon;timestamp;temperature;humidity
5556;DHT22;2801;50.972;7.856;2023-06-22T00:01:20;17.70;99.90
5556;DHT22;2801;50.972;7.856;2023-06-22T00:03:49;17.60;99.90
5556;DHT22;2801;50.972;7.856;2023-06-22T00:06:17;17.50;99.90
5556;DHT22;2801;50.972;7.856;2023-06-22T00:08:44;17.40;99.90
5556;DHT22;2801;50.972;7.856;2023-06-22T00:11:11;17.40;99.90
5556;DHT22;2801;50.972;7.856;2023-06-22T00:13:38;17.30;99.90
5556;DHT22;2801;50.972;7.856;2023-06-22T00:16:05;17.30;99.90
5556;DHT22;2801;50.972;7.856;2023-06-22T00:18:32;17.30;99.90
5556;DHT22;2801;50.972;7.856;2023-06-22T00:21:00;17.30;99.90
5556;DHT22;2801;50.972;7.856;2023-06-22T00:23:27;17.40;99.90
5556;DHT22;2801;50.972;7.856;2023-06-22T00:25:54;17.40;99.90
5556;DHT22;2801;50.972;7.856;2023-06-22T00:28:21;17.50;99.90
5556;DHT22;2801;50.972;7.856;2023-06-22T00:30:49;17.50;99.90
5556;DHT22;2801;50.972;7.856;2023-06-22T00:33:16;17.50;99.90
5556;DHT22;2801;50.972;7.856;2023-06-22T00:35:43;17.60;99.90
5556;DHT22;2801;50.972;7.856;2023-06-22T00:38:11;17.60;99.90
5556;DHT22;2801;50.972;7.856;2023-06-22T00:40:38;17.70;99.90
5556;DHT22;2801;50.972;7.856;2023-06-22T00:43:05;17.70;99.90
5556;DHT22;2801;50.972;7.856;2023-06-22T00:45:33;17.80;99.90
5556;DHT22;2801;50.972;7.856;2023-06-22T00:48:00;17.80;99.90
5556;DHT22;2801;50.972;7.856;2023-06-22T00:50:33;17.90;99.90
5556;DHT22;2801;50.972;7.856;2023-06-22T00:53:05;17.90;99.90
5556;DHT22;2801;50.972;7.856;2023-06-22T00:55:37;18.00;99.90
5556;DHT22;2801;50.972;7.856;2023-06-22T00:58:14;18.00;99.90
5556;DHT22;2801;50.972;7.856;2023-06-22T01:00:41;18.00;99.90
5556;DHT22;2801;50.972;7.856;2023-06-22T01:03:09;18.10;99.90
5556;DHT22;2801;50.972;7.856;2023-06-22T01:05:38;18.10;99.90
5556;DHT22;2801;50.972;7.856;2023-06-22T01:11:18;18.10;99.90
5556;DHT22;2801;50.972;7.856;2023-06-22T01:16:52;18.20;99.90
5556;DHT22;2801;50.972;7.856;2023-06-22T01:19:44;18.10;99.90
5556;DHT22;2801;50.972;7.856;2023-06-22T01:22:20;18.10;99.90
5556;DHT22;2801;50.972;7.856;2023-06-22T01:24:55;18.20;99.90
5556;DHT22;2801;50.972;7.856;2023-06-22T01:30:19;18.30;99.90
5556;DHT22;2801;50.972;7.856;2023-06-22T01:32:47;18.30;99.90
5556;DHT22;2801;50.972;7.856;2023-06-22T01:35:17;18.40;99.90
5556;DHT22;2801;50.972;7.856;2023-06-22T01:37:45;18.30;99.90
5556;DHT22;2801;50.972;7.856;2023-06-22T01:40:13;18.30;99.90
5556;DHT22;2801;50.972;7.856;2023-06-22T01:42:41;18.30;99.90
5556;DHT22;2801;50.972;7.856;2023-06-22T01:45:11;18.30;99.90
5556;DHT22;2801;50.972;7.856;2023-06-22T01:47:39;18.30;99.90
5556;DHT22;2801;50.972;7.856;2023-06-22T01:50:07;18.20;99.90
5556;DHT22;2801;50.972;7.856;2023-06-22T01:52:34;18.20;99.90
5556;DHT22;2801;50.972;7.856;2023-06-22T01:55:01;18.20;99.90
5556;DHT22;2801;50.972;7.856;2023-06-22T01:57:28;18.20;99.90
5556;DHT22;2801;50.972;7.856;2023-06-22T02:00:09;18.30;99.90
5556;DHT22;2801;50.972;7.856;2023-06-22T02:02:53;18.30;99.90
5556;DHT22;2801;50.972;7.856;2023-06-22T02:05:38;18.30;99.90
5556;DHT22;2801;50.972;7.856;2023-06-22T02:08:17;18.30;99.90
5556;DHT22;2801;50.972;7.856;2023-06-22T02:10:48;18.30;99.90
5556;DHT22;2801;50.972;7.856;2023-06-22T02:13:17;18.20;99.90
5556;DHT22;2801;50.972;7.856;2023-06-22T02:15:46;18.20;99.90
5556;DHT22;2801;50.972;7.856;2023-06-22T02:18:14;18.30;99.90
5556;DHT22;2801;50.972;7.856;2023-06-22T02:20:41;18.30;99.90
5556;DHT22;2801;50.972;7.856;2023-06-22T02:23:08;18.30;99.90
5556;DHT22;2801;50.972;7.856;2023-06-22T02:25:35;18.40;99.90
5556;DHT22;2801;50.972;7.856;2023-06-22T02:28:03;18.30;99.90
5556;DHT22;2801;50.972;7.856;2023-06-22T02:30:31;18.40;99.90
5556;DHT22;2801;50.972;7.856;2023-06-22T02:32:58;18.40;99.90
5556;DHT22;2801;50.972;7.856;2023-06-22T02:35:27;18.40;99.90
5556;DHT22;2801;50.972;7.856;2023-06-22T02:37:59;18.40;99.90
5556;DHT22;2801;50.972;7.856;2023-06-22T02:40:31;18.40;99.90
5556;DHT22;2801;50.972;7.856;2023-06-22T02:42:58;18.50;99.90
5556;DHT22;2801;50.972;7.856;2023-06-22T02:45:29;18.50;99.90
5556;DHT22;2801;50.972;7.856;2023-06-22T02:47:56;18.50;99.90
5556;DHT22;2801;50.972;7.856;2023-06-22T02:50:24;18.50;99.90
5556;DHT22;2801;50.972;7.856;2023-06-22T02:52:51;18.50;99.90
5556;DHT22;2801;50.972;7.856;2023-06-22T02:55:18;18.60;99.90
5556;DHT22;2801;50.972;7.856;2023-06-22T02:57:45;18.50;99.90
5556;DHT22;2801;50.972;7.856;2023-06-22T03:00:14;18.50;99.90
5556;DHT22;2801;50.972;7.856;2023-06-22T03:02:45;18.50;99.90
5556;DHT22;2801;50.972;7.856;2023-06-22T03:05:16;18.50;99.90
5556;DHT22;2801;50.972;7.856;2023-06-22T03:07:45;18.50;99.90
5556;DHT22;2801;50.972;7.856;2023-06-22T03:10:13;18.50;99.90
5556;DHT22;2801;50.972;7.856;2023-06-22T03:12:42;18.50;99.90
5556;DHT22;2801;50.972;7.856;2023-06-22T03:15:11;18.50;99.90
5556;DHT22;2801;50.972;7.856;2023-06-22T03:17:39;18.50;99.90
5556;DHT22;2801;50.972;7.856;2023-06-22T03:20:09;18.50;99.90
5556;DHT22;2801;50.972;7.856;2023-06-22T03:22:41;18.50;99.90
5556;DHT22;2801;50.972;7.856;2023-06-22T03:25:09;18.50;99.90
5556;DHT22;2801;50.972;7.856;2023-06-22T03:27:42;18.40;99.90
5556;DHT22;2801;50.972;7.856;2023-06-22T03:30:11;18.40;99.90
5556;DHT22;2801;50.972;7.856;2023-06-22T03:32:38;18.30;99.90
5556;DHT22;2801;50.972;7.856;2023-06-22T03:35:06;18.30;99.90
5556;DHT22;2801;50.972;7.856;2023-06-22T03:37:33;18.20;99.90
5556;DHT22;2801;50.972;7.856;2023-06-22T03:40:00;18.10;99.90
5556;DHT22;2801;50.972;7.856;2023-06-22T03:42:27;18.00;99.90
5556;DHT22;2801;50.972;7.856;2023-06-22T03:44:54;18.00;99.90
5556;DHT22;2801;50.972;7.856;2023-06-22T03:47:22;17.90;99.90
5556;DHT22;2801;50.972;7.856;2023-06-22T03:49:49;17.90;99.90
5556;DHT22;2801;50.972;7.856;2023-06-22T03:52:16;18.00;99.90
5556;DHT22;2801;50.972;7.856;2023-06-22T03:54:43;18.00;99.90
5556;DHT22;2801;50.972;7.856;2023-06-22T03:57:10;17.90;99.90
5556;DHT22;2801;50.972;7.856;2023-06-22T03:59:37;18.00;99.90
5556;DHT22;2801;50.972;7.856;2023-06-22T04:02:04;18.00;99.90
5556;DHT22;2801;50.972;7.856;2023-06-22T04:04:31;18.00;99.90
5556;DHT22;2801;50.972;7.856;2023-06-22T04:06:59;18.00;99.90
5556;DHT22;2801;50.972;7.856;2023-06-22T04:09:26;18.00;99.90
5556;DHT22;2801;50.972;7.856;2023-06-22T04:11:53;18.00;99.90
5556;DHT22;2801;50.972;7.856;2023-06-22T04:14:20;18.00;99.90
5556;DHT22;2801;50.972;7.856;2023-06-22T04:16:46;18.00;99.90
5556;DHT22;2801;50.972;7.856;2023-06-22T04:19:13;18.00;99.90
5556;DHT22;2801;50.972;7.856;2023-06-22T04:21:43;18.00;99.90
5556;DHT22;2801;50.972;7.856;2023-06-22T04:24:12;18.00;99.90
5556;DHT22;2801;50.972;7.856;2023-06-22T04:26:39;18.00;99.90
5556;DHT22;2801;50.972;7.856;2023-06-22T04:29:08;18.00;99.90
5556;DHT22;2801;50.972;7.856;2023-06-22T04:31:37;18.00;99.90
5556;DHT22;2801;50.972;7.856;2023-06-22T04:34:06;18.00;99.90
5556;DHT22;2801;50.972;7.856;2023-06-22T04:36:35;18.00;99.90
5556;DHT22;2801;50.972;7.856;2023-06-22T04:39:12;18.00;99.90
5556;DHT22;2801;50.972;7.856;2023-06-22T04:41:40;18.00;99.90
5556;DHT22;2801;50.972;7.856;2023-06-22T04:44:14;18.00;99.90
5556;DHT22;2801;50.972;7.856;2023-06-22T04:46:56;18.00;99.90
5556;DHT22;2801;50.972;7.856;2023-06-22T04:49:30;18.00;99.90
5556;DHT22;2801;50.972;7.856;2023-06-22T04:52:11;18.00;99.90
5556;DHT22;2801;50.972;7.856;2023-06-22T04:54:40;18.00;99.90
5556;DHT22;2801;50.972;7.856;2023-06-22T04:57:14;18.00;99.90
5556;DHT22;2801;50.972;7.856;2023-06-22T04:59:41;18.00;99.90
5556;DHT22;2801;50.972;7.856;2023-06-22T05:02:09;18.00;99.90
5556;DHT22;2801;50.972;7.856;2023-06-22T05:04:36;18.00;99.90
5556;DHT22;2801;50.972;7.856;2023-06-22T05:07:06;18.10;99.90
5556;DHT22;2801;50.972;7.856;2023-06-22T05:09:34;18.10;99.90
5556;DHT22;2801;50.972;7.856;2023-06-22T05:12:02;18.30;99.90
5556;DHT22;2801;50.972;7.856;2023-06-22T05:14:29;18.30;99.90
5556;DHT22;2801;50.972;7.856;2023-06-22T05:16:57;18.30;99.90
5556;DHT22;2801;50.972;7.856;2023-06-22T05:19:30;18.40;99.90
5556;DHT22;2801;50.972;7.856;2023-06-22T05:22:00;18.50;99.90
5556;DHT22;2801;50.972;7.856;2023-06-22T05:24:27;18.60;99.90
5556;DHT22;2801;50.972;7.856;2023-06-22T05:26:54;18.60;99.90
5556;DHT22;2801;50.972;7.856;2023-06-22T05:29:22;18.70;99.90
5556;DHT22;2801;50.972;7.856;2023-06-22T05:31:49;18.60;99.90
5556;DHT22;2801;50.972;7.856;2023-06-22T05:34:16;18.70;99.90
5556;DHT22;2801;50.972;7.856;2023-06-22T05:36:43;18.80;99.90
5556;DHT22;2801;50.972;7.856;2023-06-22T05:39:14;18.90;99.90
5556;DHT22;2801;50.972;7.856;2023-06-22T05:41:42;19.00;99.90
5556;DHT22;2801;50.972;7.856;2023-06-22T05:44:10;19.10;99.90
5556;DHT22;2801;50.972;7.856;2023-06-22T05:46:39;19.10;99.90
5556;DHT22;2801;50.972;7.856;2023-06-22T05:49:12;19.40;99.90
5556;DHT22;2801;50.972;7.856;2023-06-22T05:51:40;19.70;99.90
5556;DHT22;2801;50.972;7.856;2023-06-22T05:54:07;20.10;99.90
5556;DHT22;2801;50.972;7.856;2023-06-22T05:56:35;20.60;99.90
5556;DHT22;2801;50.972;7.856;2023-06-22T05:59:02;21.10;99.90
5556;DHT22;2801;50.972;7.856;2023-06-22T06:01:29;21.40;99.90
5556;DHT22;2801;50.972;7.856;2023-06-22T06:04:04;21.60;99.90
5556;DHT22;2801;50.972;7.856;2023-06-22T06:06:32;21.70;99.90
5556;DHT22;2801;50.972;7.856;2023-06-22T06:09:01;21.80;99.90
5556;DHT22;2801;50.972;7.856;2023-06-22T06:11:28;22.10;99.90
5556;DHT22;2801;50.972;7.856;2023-06-22T06:13:55;22.30;99.90
5556;DHT22;2801;50.972;7.856;2023-06-22T06:16:22;22.50;99.90
5556;DHT22;2801;50.972;7.856;2023-06-22T06:18:50;22.80;99.90
5556;DHT22;2801;50.972;7.856;2023-06-22T06:21:17;23.00;99.90
5556;DHT22;2801;50.972;7.856;2023-06-22T06:23:44;23.10;99.90
5556;DHT22;2801;50.972;7.856;2023-06-22T06:26:11;23.00;99.90
5556;DHT22;2801;50.972;7.856;2023-06-22T06:28:38;22.90;99.90
5556;DHT22;2801;50.972;7.856;2023-06-22T06:31:05;23.00;99.90
5556;DHT22;2801;50.972;7.856;2023-06-22T06:33:34;23.30;99.90
5556;DHT22;2801;50.972;7.856;2023-06-22T06:36:02;23.50;99.90
5556;DHT22;2801;50.972;7.856;2023-06-22T06:38:32;23.80;99.90
5556;DHT22;2801;50.972;7.856;2023-06-22T06:40:59;24.00;99.90
5556;DHT22;2801;50.972;7.856;2023-06-22T06:43:26;24.20;99.90
5556;DHT22;2801;50.972;7.856;2023-06-22T06:45:53;24.10;99.90
5556;DHT22;2801;50.972;7.856;2023-06-22T06:48:20;24.00;99.90
5556;DHT22;2801;50.972;7.856;2023-06-22T06:50:47;24.10;99.90
5556;DHT22;2801;50.972;7.856;2023-06-22T06:53:14;24.20;99.90
5556;DHT22;2801;50.972;7.856;2023-06-22T06:55:41;24.20;99.90
5556;DHT22;2801;50.972;7.856;2023-06-22T06:58:08;24.50;99.90
5556;DHT22;2801;50.972;7.856;2023-06-22T07:00:36;24.70;99.90
5556;DHT22;2801;50.972;7.856;2023-06-22T07:03:04;24.80;99.90
5556;DHT22;2801;50.972;7.856;2023-06-22T07:05:31;24.80;99.90
5556;DHT22;2801;50.972;7.856;2023-06-22T07:07:58;24.80;99.90
5556;DHT22;2801;50.972;7.856;2023-06-22T07:10:26;24.70;99.90
5556;DHT22;2801;50.972;7.856;2023-06-22T07:12:53;24.70;99.90
5556;DHT22;2801;50.972;7.856;2023-06-22T07:15:20;24.60;99.90
5556;DHT22;2801;50.972;7.856;2023-06-22T07:17:47;24.60;99.90
5556;DHT22;2801;50.972;7.856;2023-06-22T07:20:14;24.60;99.90
5556;DHT22;2801;50.972;7.856;2023-06-22T07:22:43;24.70;99.90
5556;DHT22;2801;50.972;7.856;2023-06-22T07:25:14;24.90;99.90
5556;DHT22;2801;50.972;7.856;2023-06-22T07:28:02;24.90;99.90
5556;DHT22;2801;50.972;7.856;2023-06-22T07:30:32;24.80;99.90
5556;DHT22;2801;50.972;7.856;2023-06-22T07:33:01;24.60;99.90
5556;DHT22;2801;50.972;7.856;2023-06-22T07:35:35;24.40;99.90
5556;DHT22;2801;50.972;7.856;2023-06-22T07:38:02;24.50;99.90
5556;DHT22;2801;50.972;7.856;2023-06-22T07:40:32;24.60;99.90
5556;DHT22;2801;50.972;7.856;2023-06-22T07:43:00;24.50;99.90
5556;DHT22;2801;50.972;7.856;2023-06-22T07:45:27;24.40;99.90
5556;DHT22;2801;50.972;7.856;2023-06-22T07:47:54;24.40;99.90
5556;DHT22;2801;50.972;7.856;2023-06-22T07:50:21;24.40;99.90
5556;DHT22;2801;50.972;7.856;2023-06-22T07:52:48;24.40;99.90
5556;DHT22;2801;50.972;7.856;2023-06-22T07:55:15;24.40;99.90
5556;DHT22;2801;50.972;7.856;2023-06-22T07:57:42;24.40;99.90
5556;DHT22;2801;50.972;7.856;2023-06-22T08:00:10;24.60;99.90
5556;DHT22;2801;50.972;7.856;2023-06-22T08:02:44;24.80;99.90
5556;DHT22;2801;50.972;7.856;2023-06-22T08:05:14;24.90;99.90
5556;DHT22;2801;50.972;7.856;2023-06-22T08:07:44;25.10;99.90
5556;DHT22;2801;50.972;7.856;2023-06-22T08:10:14;25.20;99.90
5556;DHT22;2801;50.972;7.856;2023-06-22T08:12:41;25.40;99.90
5556;DHT22;2801;50.972;7.856;2023-06-22T08:15:09;25.50;99.90
5556;DHT22;2801;50.972;7.856;2023-06-22T08:17:37;25.70;99.90
5556;DHT22;2801;50.972;7.856;2023-06-22T08:20:07;26.00;99.90
5556;DHT22;2801;50.972;7.856;2023-06-22T08:22:39;26.40;99.90
5556;DHT22;2801;50.972;7.856;2023-06-22T08:25:08;26.80;99.90
5556;DHT22;2801;50.972;7.856;2023-06-22T08:27:36;27.10;99.90
5556;DHT22;2801;50.972;7.856;2023-06-22T08:30:03;27.80;99.90
5556;DHT22;2801;50.972;7.856;2023-06-22T08:32:31;28.20;99.90
5556;DHT22;2801;50.972;7.856;2023-06-22T08:35:00;28.40;99.90
5556;DHT22;2801;50.972;7.856;2023-06-22T08:37:28;28.40;99.90
5556;DHT22;2801;50.972;7.856;2023-06-22T08:40:04;28.30;99.90
5556;DHT22;2801;50.972;7.856;2023-06-22T08:42:35;28.40;99.90
5556;DHT22;2801;50.972;7.856;2023-06-22T08:45:03;28.60;99.90
5556;DHT22;2801;50.972;7.856;2023-06-22T08:47:30;28.80;99.90
5556;DHT22;2801;50.972;7.856;2023-06-22T08:49:57;29.00;99.90
5556;DHT22;2801;50.972;7.856;2023-06-22T08:52:24;29.20;99.90
5556;DHT22;2801;50.972;7.856;2023-06-22T08:54:51;29.00;99.90
5556;DHT22;2801;50.972;7.856;2023-06-22T08:57:18;28.60;99.90
5556;DHT22;2801;50.972;7.856;2023-06-22T08:59:45;28.10;99.90
5556;DHT22;2801;50.972;7.856;2023-06-22T09:02:12;27.70;99.90
5556;DHT22;2801;50.972;7.856;2023-06-22T09:04:39;27.40;99.90
5556;DHT22;2801;50.972;7.856;2023-06-22T09:07:06;27.10;99.90
5556;DHT22;2801;50.972;7.856;2023-06-22T09:09:34;27.00;99.90
5556;DHT22;2801;50.972;7.856;2023-06-22T09:12:01;27.10;99.90
5556;DHT22;2801;50.972;7.856;2023-06-22T09:14:28;27.10;99.90
5556;DHT22;2801;50.972;7.856;2023-06-22T09:16:55;27.40;99.90
5556;DHT22;2801;50.972;7.856;2023-06-22T09:19:22;27.80;99.90
5556;DHT22;2801;50.972;7.856;2023-06-22T09:21:49;28.00;99.90
5556;DHT22;2801;50.972;7.856;2023-06-22T09:24:16;28.10;99.90
5556;DHT22;2801;50.972;7.856;2023-06-22T09:26:43;28.30;99.90
5556;DHT22;2801;50.972;7.856;2023-06-22T09:29:10;28.50;99.90
5556;DHT22;2801;50.972;7.856;2023-06-22T09:31:37;28.50;99.90
5556;DHT22;2801;50.972;7.856;2023-06-22T09:34:04;28.40;99.90
5556;DHT22;2801;50.972;7.856;2023-06-22T09:36:31;28.40;99.90
5556;DHT22;2801;50.972;7.856;2023-06-22T09:38:58;28.40;99.90
5556;DHT22;2801;50.972;7.856;2023-06-22T09:41:25;28.50;99.90
5556;DHT22;2801;50.972;7.856;2023-06-22T09:43:52;28.40;99.90
5556;DHT22;2801;50.972;7.856;2023-06-22T09:46:22;28.30;99.90
5556;DHT22;2801;50.972;7.856;2023-06-22T09:48:52;28.20;99.90
5556;DHT22;2801;50.972;7.856;2023-06-22T09:51:19;28.20;99.90
5556;DHT22;2801;50.972;7.856;2023-06-22T09:53:48;28.10;99.90
5556;DHT22;2801;50.972;7.856;2023-06-22T09:56:15;28.10;99.90
5556;DHT22;2801;50.972;7.856;2023-06-22T09:58:46;28.20;99.90
5556;DHT22;2801;50.972;7.856;2023-06-22T10:01:14;28.30;99.90
5556;DHT22;2801;50.972;7.856;2023-06-22T10:03:41;28.40;99.90
5556;DHT22;2801;50.972;7.856;2023-06-22T10:06:08;28.40;99.90
5556;DHT22;2801;50.972;7.856;2023-06-22T10:08:35;28.30;99.90
5556;DHT22;2801;50.972;7.856;2023-06-22T10:11:03;28.20;99.90
5556;DHT22;2801;50.972;7.856;2023-06-22T10:13:30;28.10;99.90
5556;DHT22;2801;50.972;7.856;2023-06-22T10:15:57;28.00;99.90
5556;DHT22;2801;50.972;7.856;2023-06-22T10:18:24;27.90;99.90
5556;DHT22;2801;50.972;7.856;2023-06-22T10:20:52;27.80;99.90
5556;DHT22;2801;50.972;7.856;2023-06-22T10:23:19;27.70;99.90
5556;DHT22;2801;50.972;7.856;2023-06-22T10:25:47;27.50;99.90
5556;DHT22;2801;50.972;7.856;2023-06-22T10:28:15;27.30;99.90
5556;DHT22;2801;50.972;7.856;2023-06-22T10:30:42;27.00;99.90
5556;DHT22;2801;50.972;7.856;2023-06-22T10:33:10;26.90;99.90
5556;DHT22;2801;50.972;7.856;2023-06-22T10:35:38;26.80;99.90
5556;DHT22;2801;50.972;7.856;2023-06-22T10:38:06;26.60;99.90
5556;DHT22;2801;50.972;7.856;2023-06-22T10:40:33;26.50;99.90
5556;DHT22;2801;50.972;7.856;2023-06-22T10:43:00;26.40;99.90
5556;DHT22;2801;50.972;7.856;2023-06-22T10:45:27;26.10;99.90
5556;DHT22;2801;50.972;7.856;2023-06-22T10:47:55;26.10;99.90
5556;DHT22;2801;50.972;7.856;2023-06-22T10:50:22;26.00;99.90
5556;DHT22;2801;50.972;7.856;2023-06-22T10:52:51;25.90;99.90
5556;DHT22;2801;50.972;7.856;2023-06-22T10:55:18;25.80;99.90
5556;DHT22;2801;50.972;7.856;2023-06-22T10:57:45;25.60;99.90
5556;DHT22;2801;50.972;7.856;2023-06-22T11:00:14;25.40;99.90
5556;DHT22;2801;50.972;7.856;2023-06-22T11:02:43;25.30;99.90
5556;DHT22;2801;50.972;7.856;2023-06-22T11:05:11;25.00;99.90
5556;DHT22;2801;50.972;7.856;2023-06-22T11:07:42;24.60;99.90
5556;DHT22;2801;50.972;7.856;2023-06-22T11:10:15;24.20;99.90
5556;DHT22;2801;50.972;7.856;2023-06-22T11:12:42;23.90;99.90
5556;DHT22;2801;50.972;7.856;2023-06-22T11:15:10;23.80;99.90
5556;DHT22;2801;50.972;7.856;2023-06-22T11:17:37;23.60;99.90
5556;DHT22;2801;50.972;7.856;2023-06-22T11:20:05;23.50;99.90
5556;DHT22;2801;50.972;7.856;2023-06-22T11:22:41;23.30;99.90
5556;DHT22;2801;50.972;7.856;2023-06-22T11:25:08;23.10;99.90
5556;DHT22;2801;50.972;7.856;2023-06-22T11:27:36;23.00;99.90
5556;DHT22;2801;50.972;7.856;2023-06-22T11:30:03;22.80;99.90
5556;DHT22;2801;50.972;7.856;2023-06-22T11:32:31;22.70;99.90
5556;DHT22;2801;50.972;7.856;2023-06-22T11:34:58;22.60;99.90
5556;DHT22;2801;50.972;7.856;2023-06-22T11:37:25;22.50;99.90
5556;DHT22;2801;50.972;7.856;2023-06-22T11:39:52;22.40;99.90
5556;DHT22;2801;50.972;7.856;2023-06-22T11:42:33;22.30;99.90
5556;DHT22;2801;50.972;7.856;2023-06-22T11:45:01;22.30;99.90
5556;DHT22;2801;50.972;7.856;2023-06-22T11:47:29;22.20;99.90
5556;DHT22;2801;50.972;7.856;2023-06-22T11:49:56;22.20;99.90
5556;DHT22;2801;50.972;7.856;2023-06-22T11:52:23;22.20;99.90
5556;DHT22;2801;50.972;7.856;2023-06-22T11:54:50;22.20;99.90
5556;DHT22;2801;50.972;7.856;2023-06-22T11:57:17;22.10;99.90
5556;DHT22;2801;50.972;7.856;2023-06-22T11:59:44;22.00;99.90
5556;DHT22;2801;50.972;7.856;2023-06-22T12:02:33;21.90;99.90
5556;DHT22;2801;50.972;7.856;2023-06-22T12:05:00;21.80;99.90
5556;DHT22;2801;50.972;7.856;2023-06-22T12:07:28;21.80;99.90
5556;DHT22;2801;50.972;7.856;2023-06-22T12:09:55;21.70;99.90
5556;DHT22;2801;50.972;7.856;2023-06-22T12:12:22;21.50;99.90
5556;DHT22;2801;50.972;7.856;2023-06-22T12:14:49;21.40;99.90
5556;DHT22;2801;50.972;7.856;2023-06-22T12:17:16;21.30;99.90
5556;DHT22;2801;50.972;7.856;2023-06-22T12:19:43;21.20;99.90
5556;DHT22;2801;50.972;7.856;2023-06-22T12:22:10;21.00;99.90
5556;DHT22;2801;50.972;7.856;2023-06-22T12:24:37;20.90;99.90
5556;DHT22;2801;50.972;7.856;2023-06-22T12:27:04;20.80;99.90
5556;DHT22;2801;50.972;7.856;2023-06-22T12:29:31;20.70;99.90
5556;DHT22;2801;50.972;7.856;2023-06-22T12:31:58;20.60;99.90
5556;DHT22;2801;50.972;7.856;2023-06-22T12:34:25;20.70;99.90
5556;DHT22;2801;50.972;7.856;2023-06-22T12:36:52;20.70;99.90
5556;DHT22;2801;50.972;7.856;2023-06-22T12:39:21;20.60;99.90
5556;DHT22;2801;50.972;7.856;2023-06-22T12:41:48;20.70;99.90
5556;DHT22;2801;50.972;7.856;2023-06-22T12:44:15;20.70;99.90
5556;DHT22;2801;50.972;7.856;2023-06-22T12:46:42;20.70;99.90
5556;DHT22;2801;50.972;7.856;2023-06-22T12:49:09;20.80;99.90
5556;DHT22;2801;50.972;7.856;2023-06-22T12:51:40;21.20;99.90
5556;DHT22;2801;50.972;7.856;2023-06-22T12:54:09;21.60;99.90
5556;DHT22;2801;50.972;7.856;2023-06-22T12:56:38;21.80;99.90
5556;DHT22;2801;50.972;7.856;2023-06-22T12:59:05;22.00;99.90
5556;DHT22;2801;50.972;7.856;2023-06-22T13:01:32;22.20;99.90
5556;DHT22;2801;50.972;7.856;2023-06-22T13:04:00;22.30;99.90
5556;DHT22;2801;50.972;7.856;2023-06-22T13:06:27;22.40;99.90
5556;DHT22;2801;50.972;7.856;2023-06-22T13:08:56;22.70;99.90
5556;DHT22;2801;50.972;7.856;2023-06-22T13:11:43;22.90;99.90
5556;DHT22;2801;50.972;7.856;2023-06-22T13:14:10;23.10;99.90
5556;DHT22;2801;50.972;7.856;2023-06-22T13:16:38;23.20;99.90
5556;DHT22;2801;50.972;7.856;2023-06-22T13:19:05;23.10;99.90
5556;DHT22;2801;50.972;7.856;2023-06-22T13:21:34;23.10;99.90
5556;DHT22;2801;50.972;7.856;2023-06-22T13:24:01;23.00;99.90
5556;DHT22;2801;50.972;7.856;2023-06-22T13:26:28;23.00;99.90
5556;DHT22;2801;50.972;7.856;2023-06-22T13:28:55;22.90;99.90
5556;DHT22;2801;50.972;7.856;2023-06-22T13:31:22;22.90;99.90
5556;DHT22;2801;50.972;7.856;2023-06-22T13:33:49;23.10;99.90
5556;DHT22;2801;50.972;7.856;2023-06-22T13:36:19;23.10;99.90
5556;DHT22;2801;50.972;7.856;2023-06-22T13:38:46;23.30;99.90
5556;DHT22;2801;50.972;7.856;2023-06-22T13:41:13;23.60;99.90
5556;DHT22;2801;50.972;7.856;2023-06-22T13:43:40;23.90;99.90
5556;DHT22;2801;50.972;7.856;2023-06-22T13:46:07;24.00;99.90
5556;DHT22;2801;50.972;7.856;2023-06-22T13:48:34;24.10;99.90
5556;DHT22;2801;50.972;7.856;2023-06-22T13:51:01;24.10;99.90
5556;DHT22;2801;50.972;7.856;2023-06-22T13:53:29;24.20;99.90
5556;DHT22;2801;50.972;7.856;2023-06-22T13:55:56;24.20;99.90
5556;DHT22;2801;50.972;7.856;2023-06-22T13:58:23;24.10;99.90
5556;DHT22;2801;50.972;7.856;2023-06-22T14:00:50;24.20;99.90
5556;DHT22;2801;50.972;7.856;2023-06-22T14:03:19;24.30;99.90
5556;DHT22;2801;50.972;7.856;2023-06-22T14:05:46;24.40;99.90
5556;DHT22;2801;50.972;7.856;2023-06-22T14:08:13;24.50;99.90
5556;DHT22;2801;50.972;7.856;2023-06-22T14:11:01;24.60;99.90
5556;DHT22;2801;50.972;7.856;2023-06-22T14:13:28;24.80;99.90
5556;DHT22;2801;50.972;7.856;2023-06-22T14:15:55;25.10;99.90
5556;DHT22;2801;50.972;7.856;2023-06-22T14:18:22;25.20;99.90
5556;DHT22;2801;50.972;7.856;2023-06-22T14:20:49;25.20;99.90
5556;DHT22;2801;50.972;7.856;2023-06-22T14:23:16;25.20;99.90
5556;DHT22;2801;50.972;7.856;2023-06-22T14:25:43;25.30;99.90
5556;DHT22;2801;50.972;7.856;2023-06-22T14:28:10;25.30;99.90
5556;DHT22;2801;50.972;7.856;2023-06-22T14:30:37;25.10;99.90
5556;DHT22;2801;50.972;7.856;2023-06-22T14:33:04;24.80;99.90
5556;DHT22;2801;50.972;7.856;2023-06-22T14:35:31;24.60;99.90
5556;DHT22;2801;50.972;7.856;2023-06-22T14:37:58;24.40;99.90
5556;DHT22;2801;50.972;7.856;2023-06-22T14:40:25;24.20;99.90
5556;DHT22;2801;50.972;7.856;2023-06-22T14:42:52;23.90;99.90
5556;DHT22;2801;50.972;7.856;2023-06-22T14:45:19;23.80;99.90
5556;DHT22;2801;50.972;7.856;2023-06-22T14:47:46;23.70;99.90
5556;DHT22;2801;50.972;7.856;2023-06-22T14:50:13;23.50;99.90
5556;DHT22;2801;50.972;7.856;2023-06-22T14:52:42;23.50;99.90
5556;DHT22;2801;50.972;7.856;2023-06-22T14:55:09;23.40;99.90
5556;DHT22;2801;50.972;7.856;2023-06-22T14:57:36;23.40;99.90
5556;DHT22;2801;50.972;7.856;2023-06-22T15:00:03;23.30;99.90
5556;DHT22;2801;50.972;7.856;2023-06-22T15:02:33;23.20;99.90
5556;DHT22;2801;50.972;7.856;2023-06-22T15:05:00;23.10;99.90
5556;DHT22;2801;50.972;7.856;2023-06-22T15:07:27;23.10;99.90
5556;DHT22;2801;50.972;7.856;2023-06-22T15:09:54;23.00;99.90
5556;DHT22;2801;50.972;7.856;2023-06-22T15:12:21;22.80;99.90
5556;DHT22;2801;50.972;7.856;2023-06-22T15:14:48;22.40;99.90
5556;DHT22;2801;50.972;7.856;2023-06-22T15:17:15;22.10;99.90
5556;DHT22;2801;50.972;7.856;2023-06-22T15:19:42;21.80;99.90
5556;DHT22;2801;50.972;7.856;2023-06-22T15:22:09;21.40;99.90
5556;DHT22;2801;50.972;7.856;2023-06-22T15:24:36;20.60;99.90
5556;DHT22;2801;50.972;7.856;2023-06-22T15:27:04;19.70;99.90
5556;DHT22;2801;50.972;7.856;2023-06-22T15:29:31;19.10;99.90
5556;DHT22;2801;50.972;7.856;2023-06-22T15:32:01;18.60;99.90
5556;DHT22;2801;50.972;7.856;2023-06-22T15:34:28;18.40;99.90
5556;DHT22;2801;50.972;7.856;2023-06-22T15:36:55;18.30;99.90
5556;DHT22;2801;50.972;7.856;2023-06-22T15:39:22;18.20;99.90
5556;DHT22;2801;50.972;7.856;2023-06-22T15:41:53;18.10;99.90
5556;DHT22;2801;50.972;7.856;2023-06-22T15:44:21;18.10;99.90
5556;DHT22;2801;50.972;7.856;2023-06-22T15:46:49;18.10;99.90
5556;DHT22;2801;50.972;7.856;2023-06-22T15:49:16;18.10;99.90
5556;DHT22;2801;50.972;7.856;2023-06-22T15:51:44;18.00;99.90
5556;DHT22;2801;50.972;7.856;2023-06-22T15:54:11;18.00;99.90
5556;DHT22;2801;50.972;7.856;2023-06-22T15:56:38;18.10;99.90
5556;DHT22;2801;50.972;7.856;2023-06-22T15:59:05;18.10;99.90
5556;DHT22;2801;50.972;7.856;2023-06-22T16:01:32;18.10;99.90
5556;DHT22;2801;50.972;7.856;2023-06-22T16:03:59;18.10;99.90
5556;DHT22;2801;50.972;7.856;2023-06-22T16:06:27;18.10;99.90
5556;DHT22;2801;50.972;7.856;2023-06-22T16:08:54;18.20;99.90
5556;DHT22;2801;50.972;7.856;2023-06-22T16:11:21;18.20;99.90
5556;DHT22;2801;50.972;7.856;2023-06-22T16:13:48;18.20;99.90
5556;DHT22;2801;50.972;7.856;2023-06-22T16:16:15;18.30;99.90
5556;DHT22;2801;50.972;7.856;2023-06-22T16:18:42;18.30;99.90